sensor_id;sensor_type;location;lat;lon;timestamp;temperature;humidity
2957;DHT22;1488;51.548;7.222;2023-08-30T00:01:42;24.60;83.30
2957;DHT22;1488;51.548;7.222;2023-08-30T00:04:09;24.60;83.20
2957;DHT22;1488;51.548;7.222;2023-08-30T00:06:36;24.60;83.20
2957;DHT22;1488;51.548;7.222;2023-08-30T00:09:03;24.60;83.30
2957;DHT22;1488;51.548;7.222;2023-08-30T00:11:29;24.60;83.30
2957;DHT22;1488;51.548;7.222;2023-08-30T00:14:03;24.50;83.20
2957;DHT22;1488;51.548;7.222;2023-08-30T00:16:31;24.50;83.20
2957;DHT22;1488;51.548;7.222;2023-08-30T00:18:59;24.50;83.30
2957;DHT22;1488;51.548;7.222;2023-08-30T00:21:26;24.60;83.40
2957;DHT22;1488;51.548;7.222;2023-08-30T00:23:53;24.50;83.30
2957;DHT22;1488;51.548;7.222;2023-08-30T00:26:20;24.50;83.30
2957;DHT22;1488;51.548;7.222;2023-08-30T00:28:47;24.50;83.20
2957;DHT22;1488;51.548;7.222;2023-08-30T00:31:14;24.50;83.30
2957;DHT22;1488;51.548;7.222;2023-08-30T00:33:40;24.50;83.30
2957;DHT22;1488;51.548;7.222;2023-08-30T00:36:09;24.50;83.30
2957;DHT22;1488;51.548;7.222;2023-08-30T00:38:35;24.50;83.30
2957;DHT22;1488;51.548;7.222;2023-08-30T00:41:02;24.50;83.30
2957;DHT22;1488;51.548;7.222;2023-08-30T00:43:29;24.50;83.30
2957;DHT22;1488;51.548;7.222;2023-08-30T00:45:56;24.50;83.30
2957;DHT22;1488;51.548;7.222;2023-08-30T00:48:23;24.50;83.30
2957;DHT22;1488;51.548;7.222;2023-08-30T00:50:50;24.50;83.30
2957;DHT22;1488;51.548;7.222;2023-08-30T00:53:18;24.50;83.30
2957;DHT22;1488;51.548;7.222;2023-08-30T00:55:46;24.50;83.30
2957;DHT22;1488;51.548;7.222;2023-08-30T00:58:12;24.60;83.30
2957;DHT22;1488;51.548;7.222;2023-08-30T01:00:40;24.50;83.20
2957;DHT22;1488;51.548;7.222;2023-08-30T01:03:07;24.50;83.30
2957;DHT22;1488;51.548;7.222;2023-08-30T01:05:33;24.50;83.30
2957;DHT22;1488;51.548;7.222;2023-08-30T01:08:01;24.50;83.40
2957;DHT22;1488;51.548;7.222;2023-08-30T01:10:38;24.50;83.10
2957;DHT22;1488;51.548;7.222;2023-08-30T01:13:09;24.50;83.20
2957;DHT22;1488;51.548;7.222;2023-08-30T01:15:38;24.50;83.20
2957;DHT22;1488;51.548;7.222;2023-08-30T01:18:07;24.50;83.30
2957;DHT22;1488;51.548;7.222;2023-08-30T01:20:38;24.50;83.20
2957;DHT22;1488;51.548;7.222;2023-08-30T01:23:07;24.50;83.30
2957;DHT22;1488;51.548;7.222;2023-08-30T01:25:46;24.50;83.20
2957;DHT22;1488;51.548;7.222;2023-08-30T01:28:17;24.50;83.30
2957;DHT22;1488;51.548;7.222;2023-08-30T01:30:46;24.50;83.20
2957;DHT22;1488;51.548;7.222;2023-08-30T01:33:14;24.50;83.30
2957;DHT22;1488;51.548;7.222;2023-08-30T01:35:41;24.50;83.40
2957;DHT22;1488;51.548;7.222;2023-08-30T01:38:09;24.50;83.20
2957;DHT22;1488;51.548;7.222;2023-08-30T01:40:38;24.50;83.20
2957;DHT22;1488;51.548;7.222;2023-08-30T01:43:07;24.50;83.20
2957;DHT22;1488;51.548;7.222;2023-08-30T01:45:40;24.50;83.20
2957;DHT22;1488;51.548;7.222;2023-08-30T01:48:10;24.50;83.10
2957;DHT22;1488;51.548;7.222;2023-08-30T01:50:38;24.50;83.20
2957;DHT22;1488;51.548;7.222;2023-08-30T01:53:06;24.50;84.00
2957;DHT22;1488;51.548;7.222;2023-08-30T01:55:34;24.50;83.20
2957;DHT22;1488;51.548;7.222;2023-08-30T01:58:02;24.50;83.10
2957;DHT22;1488;51.548;7.222;2023-08-30T02:00:29;24.50;83.30
2957;DHT22;1488;51.548;7.222;2023-08-30T02:02:58;24.50;83.20
2957;DHT22;1488;51.548;7.222;2023-08-30T02:05:24;24.50;83.20
2957;DHT22;1488;51.548;7.222;2023-08-30T02:08:03;24.50;83.20
2957;DHT22;1488;51.548;7.222;2023-08-30T02:10:35;24.50;83.20
2957;DHT22;1488;51.548;7.222;2023-08-30T02:13:03;24.50;83.30
2957;DHT22;1488;51.548;7.222;2023-08-30T02:15:31;24.50;83.10
2957;DHT22;1488;51.548;7.222;2023-08-30T02:18:02;24.50;83.30
2957;DHT22;1488;51.548;7.222;2023-08-30T02:20:30;24.50;83.10
2957;DHT22;1488;51.548;7.222;2023-08-30T02:22:58;24.40;83.10
2957;DHT22;1488;51.548;7.222;2023-08-30T02:25:25;24.40;83.20
2957;DHT22;1488;51.548;7.222;2023-08-30T02:27:52;24.50;83.10
2957;DHT22;1488;51.548;7.222;2023-08-30T02:30:19;24.40;83.00
2957;DHT22;1488;51.548;7.222;2023-08-30T02:32:46;24.40;83.10
2957;DHT22;1488;51.548;7.222;2023-08-30T02:35:14;24.40;83.20
2957;DHT22;1488;51.548;7.222;2023-08-30T02:37:41;24.40;83.10
2957;DHT22;1488;51.548;7.222;2023-08-30T02:40:09;24.40;82.90
2957;DHT22;1488;51.548;7.222;2023-08-30T02:42:36;24.40;83.10
2957;DHT22;1488;51.548;7.222;2023-08-30T02:45:04;24.40;83.10
2957;DHT22;1488;51.548;7.222;2023-08-30T02:47:31;24.40;83.00
2957;DHT22;1488;51.548;7.222;2023-08-30T02:49:57;24.40;83.10
2957;DHT22;1488;51.548;7.222;2023-08-30T02:52:26;24.40;82.90
2957;DHT22;1488;51.548;7.222;2023-08-30T02:54:52;24.40;83.00
2957;DHT22;1488;51.548;7.222;2023-08-30T02:57:19;24.40;83.10
2957;DHT22;1488;51.548;7.222;2023-08-30T02:59:46;24.40;83.10
2957;DHT22;1488;51.548;7.222;2023-08-30T03:02:13;24.40;83.10
2957;DHT22;1488;51.548;7.222;2023-08-30T03:04:41;24.40;83.10
2957;DHT22;1488;51.548;7.222;2023-08-30T03:07:07;24.40;83.10
2957;DHT22;1488;51.548;7.222;2023-08-30T03:09:36;24.40;83.00
2957;DHT22;1488;51.548;7.222;2023-08-30T03:12:06;24.40;83.00
2957;DHT22;1488;51.548;7.222;2023-08-30T03:14:32;24.40;82.90
2957;DHT22;1488;51.548;7.222;2023-08-30T03:16:59;24.40;82.80
2957;DHT22;1488;51.548;7.222;2023-08-30T03:19:26;24.40;82.80
2957;DHT22;1488;51.548;7.222;2023-08-30T03:21:53;24.40;82.90
2957;DHT22;1488;51.548;7.222;2023-08-30T03:24:20;24.40;83.10
2957;DHT22;1488;51.548;7.222;2023-08-30T03:26:48;24.40;83.70
2957;DHT22;1488;51.548;7.222;2023-08-30T03:29:15;24.40;83.00
2957;DHT22;1488;51.548;7.222;2023-08-30T03:31:41;24.40;83.00
2957;DHT22;1488;51.548;7.222;2023-08-30T03:34:09;24.40;83.10
2957;DHT22;1488;51.548;7.222;2023-08-30T03:36:37;24.40;82.80
2957;DHT22;1488;51.548;7.222;2023-08-30T03:39:04;24.40;83.00
2957;DHT22;1488;51.548;7.222;2023-08-30T03:41:32;24.40;82.90
2957;DHT22;1488;51.548;7.222;2023-08-30T03:44:00;24.40;83.10
2957;DHT22;1488;51.548;7.222;2023-08-30T03:46:27;24.40;83.10
2957;DHT22;1488;51.548;7.222;2023-08-30T03:48:54;24.40;82.90
2957;DHT22;1488;51.548;7.222;2023-08-30T03:51:22;24.40;82.80
2957;DHT22;1488;51.548;7.222;2023-08-30T03:53:48;24.40;82.80
2957;DHT22;1488;51.548;7.222;2023-08-30T03:56:15;24.40;82.90
2957;DHT22;1488;51.548;7.222;2023-08-30T03:58:42;24.40;82.90
2957;DHT22;1488;51.548;7.222;2023-08-30T04:01:10;24.40;82.90
2957;DHT22;1488;51.548;7.222;2023-08-30T04:03:37;24.40;83.00
2957;DHT22;1488;51.548;7.222;2023-08-30T04:06:04;24.30;82.80
2957;DHT22;1488;51.548;7.222;2023-08-30T04:08:31;24.30;82.80
2957;DHT22;1488;51.548;7.222;2023-08-30T04:10:58;24.30;82.90
2957;DHT22;1488;51.548;7.222;2023-08-30T04:13:25;24.30;82.80
2957;DHT22;1488;51.548;7.222;2023-08-30T04:15:52;24.30;82.90
2957;DHT22;1488;51.548;7.222;2023-08-30T04:18:20;24.30;82.80
2957;DHT22;1488;51.548;7.222;2023-08-30T04:20:47;24.30;82.80
2957;DHT22;1488;51.548;7.222;2023-08-30T04:23:14;24.30;82.80
2957;DHT22;1488;51.548;7.222;2023-08-30T04:25:41;24.30;82.70
2957;DHT22;1488;51.548;7.222;2023-08-30T04:28:08;24.30;82.80
2957;DHT22;1488;51.548;7.222;2023-08-30T04:30:36;24.30;82.90
2957;DHT22;1488;51.548;7.222;2023-08-30T04:33:04;24.30;82.70
2957;DHT22;1488;51.548;7.222;2023-08-30T04:35:32;24.30;82.80
2957;DHT22;1488;51.548;7.222;2023-08-30T04:38:00;24.30;82.90
2957;DHT22;1488;51.548;7.222;2023-08-30T04:40:27;24.30;82.90
2957;DHT22;1488;51.548;7.222;2023-08-30T04:42:54;24.30;83.00
2957;DHT22;1488;51.548;7.222;2023-08-30T04:45:21;24.30;83.00
2957;DHT22;1488;51.548;7.222;2023-08-30T04:47:48;24.30;83.00
2957;DHT22;1488;51.548;7.222;2023-08-30T04:50:14;24.30;82.90
2957;DHT22;1488;51.548;7.222;2023-08-30T04:52:43;24.30;83.50
2957;DHT22;1488;51.548;7.222;2023-08-30T04:55:10;24.30;82.70
2957;DHT22;1488;51.548;7.222;2023-08-30T04:57:37;24.30;82.90
2957;DHT22;1488;51.548;7.222;2023-08-30T05:00:05;24.30;82.90
2957;DHT22;1488;51.548;7.222;2023-08-30T05:02:32;24.30;82.90
2957;DHT22;1488;51.548;7.222;2023-08-30T05:04:59;24.30;82.80
2957;DHT22;1488;51.548;7.222;2023-08-30T05:07:26;24.30;82.80
2957;DHT22;1488;51.548;7.222;2023-08-30T05:09:54;24.30;82.90
2957;DHT22;1488;51.548;7.222;2023-08-30T05:12:21;24.30;82.90
2957;DHT22;1488;51.548;7.222;2023-08-30T05:14:48;24.20;82.80
2957;DHT22;1488;51.548;7.222;2023-08-30T05:17:15;24.30;82.90
2957;DHT22;1488;51.548;7.222;2023-08-30T05:19:42;24.30;82.80
2957;DHT22;1488;51.548;7.222;2023-08-30T05:22:09;24.20;82.80
2957;DHT22;1488;51.548;7.222;2023-08-30T05:24:37;24.20;82.70
2957;DHT22;1488;51.548;7.222;2023-08-30T05:27:05;24.30;82.90
2957;DHT22;1488;51.548;7.222;2023-08-30T05:29:32;24.20;82.80
2957;DHT22;1488;51.548;7.222;2023-08-30T05:31:59;24.20;82.80
2957;DHT22;1488;51.548;7.222;2023-08-30T05:34:26;24.20;82.80
2957;DHT22;1488;51.548;7.222;2023-08-30T05:36:54;24.20;82.80
2957;DHT22;1488;51.548;7.222;2023-08-30T05:39:21;24.20;82.80
2957;DHT22;1488;51.548;7.222;2023-08-30T05:41:47;24.20;82.70
2957;DHT22;1488;51.548;7.222;2023-08-30T05:44:16;24.20;82.80
2957;DHT22;1488;51.548;7.222;2023-08-30T05:46:43;24.20;82.80
2957;DHT22;1488;51.548;7.222;2023-08-30T05:49:10;24.30;83.00
2957;DHT22;1488;51.548;7.222;2023-08-30T05:51:37;24.20;82.70
2957;DHT22;1488;51.548;7.222;2023-08-30T05:54:04;24.30;82.80
2957;DHT22;1488;51.548;7.222;2023-08-30T05:56:31;24.20;82.80
2957;DHT22;1488;51.548;7.222;2023-08-30T05:58:58;24.20;82.80
2957;DHT22;1488;51.548;7.222;2023-08-30T06:01:26;24.20;82.70
2957;DHT22;1488;51.548;7.222;2023-08-30T06:03:53;24.30;82.90
2957;DHT22;1488;51.548;7.222;2023-08-30T06:06:20;24.30;83.90
2957;DHT22;1488;51.548;7.222;2023-08-30T06:08:47;24.20;83.00
2957;DHT22;1488;51.548;7.222;2023-08-30T06:11:14;24.20;83.20
2957;DHT22;1488;51.548;7.222;2023-08-30T06:13:41;24.20;83.00
2957;DHT22;1488;51.548;7.222;2023-08-30T06:16:07;24.20;83.10
2957;DHT22;1488;51.548;7.222;2023-08-30T06:18:36;24.20;83.30
2957;DHT22;1488;51.548;7.222;2023-08-30T06:21:03;24.20;83.50
2957;DHT22;1488;51.548;7.222;2023-08-30T06:23:30;24.20;83.70
2957;DHT22;1488;51.548;7.222;2023-08-30T06:25:57;24.20;83.80
2957;DHT22;1488;51.548;7.222;2023-08-30T06:28:25;24.20;83.90
2957;DHT22;1488;51.548;7.222;2023-08-30T06:30:52;24.20;84.00
2957;DHT22;1488;51.548;7.222;2023-08-30T06:33:18;24.20;83.90
2957;DHT22;1488;51.548;7.222;2023-08-30T06:35:49;24.20;84.00
2957;DHT22;1488;51.548;7.222;2023-08-30T06:38:16;24.20;84.10
2957;DHT22;1488;51.548;7.222;2023-08-30T06:40:44;24.20;84.10
2957;DHT22;1488;51.548;7.222;2023-08-30T06:43:11;24.20;84.10
2957;DHT22;1488;51.548;7.222;2023-08-30T06:45:38;24.20;84.20
2957;DHT22;1488;51.548;7.222;2023-08-30T06:48:06;24.20;84.10
2957;DHT22;1488;51.548;7.222;2023-08-30T06:50:33;24.20;83.80
2957;DHT22;1488;51.548;7.222;2023-08-30T06:53:01;24.20;83.90
2957;DHT22;1488;51.548;7.222;2023-08-30T06:55:28;24.20;83.90
2957;DHT22;1488;51.548;7.222;2023-08-30T06:57:55;24.20;83.90
2957;DHT22;1488;51.548;7.222;2023-08-30T07:00:22;24.20;83.80
2957;DHT22;1488;51.548;7.222;2023-08-30T07:02:49;24.20;83.70
2957;DHT22;1488;51.548;7.222;2023-08-30T07:05:32;24.30;83.70
2957;DHT22;1488;51.548;7.222;2023-08-30T07:08:08;24.30;83.60
2957;DHT22;1488;51.548;7.222;2023-08-30T07:14:05;24.30;83.60
2957;DHT22;1488;51.548;7.222;2023-08-30T07:16:31;24.30;83.60
2957;DHT22;1488;51.548;7.222;2023-08-30T07:18:58;24.30;83.00
2957;DHT22;1488;51.548;7.222;2023-08-30T07:21:27;24.20;81.50
2957;DHT22;1488;51.548;7.222;2023-08-30T07:23:55;24.20;80.90
2957;DHT22;1488;51.548;7.222;2023-08-30T07:26:22;24.20;81.20
2957;DHT22;1488;51.548;7.222;2023-08-30T07:28:49;24.20;81.70
2957;DHT22;1488;51.548;7.222;2023-08-30T07:31:23;24.30;82.60
2957;DHT22;1488;51.548;7.222;2023-08-30T07:34:17;24.30;82.70
2957;DHT22;1488;51.548;7.222;2023-08-30T07:36:43;24.30;82.80
2957;DHT22;1488;51.548;7.222;2023-08-30T07:39:12;24.30;82.80
2957;DHT22;1488;51.548;7.222;2023-08-30T07:41:39;24.40;82.80
2957;DHT22;1488;51.548;7.222;2023-08-30T07:44:09;24.40;82.80
2957;DHT22;1488;51.548;7.222;2023-08-30T07:47:18;24.40;82.80
2957;DHT22;1488;51.548;7.222;2023-08-30T07:50:13;24.40;83.30
2957;DHT22;1488;51.548;7.222;2023-08-30T07:52:54;24.40;83.60
2957;DHT22;1488;51.548;7.222;2023-08-30T08:02:56;24.50;83.80
2957;DHT22;1488;51.548;7.222;2023-08-30T08:05:23;24.40;83.80
2957;DHT22;1488;51.548;7.222;2023-08-30T08:07:51;24.50;84.00
2957;DHT22;1488;51.548;7.222;2023-08-30T08:10:18;24.60;84.10
2957;DHT22;1488;51.548;7.222;2023-08-30T08:16:07;24.60;84.00
2957;DHT22;1488;51.548;7.222;2023-08-30T08:29:23;24.60;84.10
2957;DHT22;1488;51.548;7.222;2023-08-30T08:41:27;24.80;84.20
2957;DHT22;1488;51.548;7.222;2023-08-30T08:53:19;24.80;83.80
2957;DHT22;1488;51.548;7.222;2023-08-30T08:55:48;24.90;83.80
2957;DHT22;1488;51.548;7.222;2023-08-30T08:58:40;24.90;83.80
2957;DHT22;1488;51.548;7.222;2023-08-30T09:01:09;24.90;83.80
2957;DHT22;1488;51.548;7.222;2023-08-30T09:03:36;24.90;83.80
2957;DHT22;1488;51.548;7.222;2023-08-30T09:06:04;24.90;83.80
2957;DHT22;1488;51.548;7.222;2023-08-30T09:08:34;24.90;83.80
2957;DHT22;1488;51.548;7.222;2023-08-30T09:11:06;24.90;83.80
2957;DHT22;1488;51.548;7.222;2023-08-30T09:13:34;24.90;83.80
2957;DHT22;1488;51.548;7.222;2023-08-30T09:19:00;24.80;83.80
2957;DHT22;1488;51.548;7.222;2023-08-30T09:21:27;24.80;84.60
2957;DHT22;1488;51.548;7.222;2023-08-30T09:24:00;24.80;83.90
2957;DHT22;1488;51.548;7.222;2023-08-30T09:26:52;24.90;83.90
2957;DHT22;1488;51.548;7.222;2023-08-30T09:29:21;24.90;83.90
2957;DHT22;1488;51.548;7.222;2023-08-30T09:31:51;24.90;84.00
2957;DHT22;1488;51.548;7.222;2023-08-30T09:34:22;24.90;83.90
2957;DHT22;1488;51.548;7.222;2023-08-30T09:36:49;24.90;84.00
2957;DHT22;1488;51.548;7.222;2023-08-30T09:39:17;24.90;83.90
2957;DHT22;1488;51.548;7.222;2023-08-30T09:41:46;24.90;83.90
2957;DHT22;1488;51.548;7.222;2023-08-30T09:44:16;24.90;83.80
2957;DHT22;1488;51.548;7.222;2023-08-30T09:46:43;24.90;83.80
2957;DHT22;1488;51.548;7.222;2023-08-30T09:49:10;25.00;83.90
2957;DHT22;1488;51.548;7.222;2023-08-30T09:51:39;25.00;83.90
2957;DHT22;1488;51.548;7.222;2023-08-30T09:54:14;25.00;83.90
2957;DHT22;1488;51.548;7.222;2023-08-30T09:56:43;25.00;83.90
2957;DHT22;1488;51.548;7.222;2023-08-30T09:59:10;25.00;83.90
2957;DHT22;1488;51.548;7.222;2023-08-30T10:01:37;25.00;83.90
2957;DHT22;1488;51.548;7.222;2023-08-30T10:04:05;25.00;84.00
2957;DHT22;1488;51.548;7.222;2023-08-30T10:06:33;25.00;83.90
2957;DHT22;1488;51.548;7.222;2023-08-30T10:09:01;25.00;83.90
2957;DHT22;1488;51.548;7.222;2023-08-30T10:11:31;25.00;84.00
2957;DHT22;1488;51.548;7.222;2023-08-30T10:14:00;25.00;84.00
2957;DHT22;1488;51.548;7.222;2023-08-30T10:16:27;25.00;84.00
2957;DHT22;1488;51.548;7.222;2023-08-30T10:19:02;25.00;83.90
2957;DHT22;1488;51.548;7.222;2023-08-30T10:21:47;25.00;83.90
2957;DHT22;1488;51.548;7.222;2023-08-30T10:24:17;25.00;84.00
2957;DHT22;1488;51.548;7.222;2023-08-30T10:26:48;24.90;84.00
2957;DHT22;1488;51.548;7.222;2023-08-30T10:29:18;25.00;84.90
2957;DHT22;1488;51.548;7.222;2023-08-30T10:31:49;24.90;84.00
2957;DHT22;1488;51.548;7.222;2023-08-30T10:34:17;24.80;83.90
2957;DHT22;1488;51.548;7.222;2023-08-30T10:36:44;24.90;84.00
2957;DHT22;1488;51.548;7.222;2023-08-30T10:39:12;24.90;84.10
2957;DHT22;1488;51.548;7.222;2023-08-30T10:41:54;24.80;84.00
2957;DHT22;1488;51.548;7.222;2023-08-30T10:44:23;24.80;84.00
2957;DHT22;1488;51.548;7.222;2023-08-30T10:46:52;24.80;84.00
2957;DHT22;1488;51.548;7.222;2023-08-30T10:49:19;24.80;84.00
2957;DHT22;1488;51.548;7.222;2023-08-30T10:51:54;24.80;84.00
2957;DHT22;1488;51.548;7.222;2023-08-30T10:54:21;24.80;84.10
2957;DHT22;1488;51.548;7.222;2023-08-30T10:56:55;24.80;84.10
2957;DHT22;1488;51.548;7.222;2023-08-30T10:59:24;24.80;85.00
2957;DHT22;1488;51.548;7.222;2023-08-30T11:01:51;24.80;84.10
2957;DHT22;1488;51.548;7.222;2023-08-30T11:04:19;24.70;84.10
2957;DHT22;1488;51.548;7.222;2023-08-30T11:06:48;24.70;84.00
2957;DHT22;1488;51.548;7.222;2023-08-30T11:09:17;24.70;84.00
2957;DHT22;1488;51.548;7.222;2023-08-30T11:11:44;24.70;83.90
2957;DHT22;1488;51.548;7.222;2023-08-30T11:14:12;24.70;83.90
2957;DHT22;1488;51.548;7.222;2023-08-30T11:16:40;24.70;83.90
2957;DHT22;1488;51.548;7.222;2023-08-30T11:19:09;24.60;83.80
2957;DHT22;1488;51.548;7.222;2023-08-30T11:21:37;24.60;83.80
2957;DHT22;1488;51.548;7.222;2023-08-30T11:24:05;24.60;83.90
2957;DHT22;1488;51.548;7.222;2023-08-30T11:26:33;24.60;83.90
2957;DHT22;1488;51.548;7.222;2023-08-30T11:29:06;24.60;84.00
2957;DHT22;1488;51.548;7.222;2023-08-30T11:31:41;24.60;84.20
2957;DHT22;1488;51.548;7.222;2023-08-30T11:34:11;24.50;84.10
2957;DHT22;1488;51.548;7.222;2023-08-30T11:36:38;24.50;84.10
2957;DHT22;1488;51.548;7.222;2023-08-30T11:39:07;24.50;84.20
2957;DHT22;1488;51.548;7.222;2023-08-30T11:41:34;24.50;84.20
2957;DHT22;1488;51.548;7.222;2023-08-30T11:44:01;24.50;84.20
2957;DHT22;1488;51.548;7.222;2023-08-30T11:46:30;24.50;84.20
2957;DHT22;1488;51.548;7.222;2023-08-30T11:49:02;24.50;84.20
2957;DHT22;1488;51.548;7.222;2023-08-30T11:51:43;24.50;84.30
2957;DHT22;1488;51.548;7.222;2023-08-30T11:54:23;24.50;84.30
2957;DHT22;1488;51.548;7.222;2023-08-30T11:57:03;24.50;84.30
2957;DHT22;1488;51.548;7.222;2023-08-30T11:59:34;24.50;84.30
2957;DHT22;1488;51.548;7.222;2023-08-30T12:02:09;24.50;84.40
2957;DHT22;1488;51.548;7.222;2023-08-30T12:04:47;24.50;84.40
2957;DHT22;1488;51.548;7.222;2023-08-30T12:07:27;24.50;84.40
2957;DHT22;1488;51.548;7.222;2023-08-30T12:10:04;24.50;84.50
2957;DHT22;1488;51.548;7.222;2023-08-30T12:12:31;24.50;84.50
2957;DHT22;1488;51.548;7.222;2023-08-30T12:14:58;24.50;84.50
2957;DHT22;1488;51.548;7.222;2023-08-30T12:17:25;24.50;84.50
2957;DHT22;1488;51.548;7.222;2023-08-30T12:19:56;24.50;84.50
2957;DHT22;1488;51.548;7.222;2023-08-30T12:22:41;24.50;84.60
2957;DHT22;1488;51.548;7.222;2023-08-30T12:25:18;24.50;84.60
2957;DHT22;1488;51.548;7.222;2023-08-30T12:27:46;24.40;84.50
2957;DHT22;1488;51.548;7.222;2023-08-30T12:30:13;24.40;84.50
2957;DHT22;1488;51.548;7.222;2023-08-30T12:32:42;24.50;84.60
2957;DHT22;1488;51.548;7.222;2023-08-30T12:35:10;24.50;84.60
2957;DHT22;1488;51.548;7.222;2023-08-30T12:37:40;24.50;84.60
2957;DHT22;1488;51.548;7.222;2023-08-30T12:40:07;24.50;84.60
2957;DHT22;1488;51.548;7.222;2023-08-30T12:45:41;24.50;84.70
2957;DHT22;1488;51.548;7.222;2023-08-30T12:48:10;24.50;84.70
2957;DHT22;1488;51.548;7.222;2023-08-30T12:50:38;24.40;84.70
2957;DHT22;1488;51.548;7.222;2023-08-30T12:53:05;24.40;84.70
2957;DHT22;1488;51.548;7.222;2023-08-30T12:55:33;24.40;84.70
2957;DHT22;1488;51.548;7.222;2023-08-30T12:58:02;24.40;84.70
2957;DHT22;1488;51.548;7.222;2023-08-30T13:00:29;24.40;84.70
2957;DHT22;1488;51.548;7.222;2023-08-30T13:02:56;24.50;84.70
2957;DHT22;1488;51.548;7.222;2023-08-30T13:05:23;24.50;84.70
2957;DHT22;1488;51.548;7.222;2023-08-30T13:07:51;24.40;84.70
2957;DHT22;1488;51.548;7.222;2023-08-30T13:10:18;24.40;84.70
2957;DHT22;1488;51.548;7.222;2023-08-30T13:12:50;24.40;84.70
2957;DHT22;1488;51.548;7.222;2023-08-30T13:15:17;24.40;84.70
2957;DHT22;1488;51.548;7.222;2023-08-30T13:17:44;24.40;84.70
2957;DHT22;1488;51.548;7.222;2023-08-30T13:20:15;24.40;84.70
2957;DHT22;1488;51.548;7.222;2023-08-30T13:22:45;24.40;84.70
2957;DHT22;1488;51.548;7.222;2023-08-30T13:25:26;24.40;84.80
2957;DHT22;1488;51.548;7.222;2023-08-30T13:27:53;24.40;84.80
2957;DHT22;1488;51.548;7.222;2023-08-30T13:30:20;24.40;84.90
2957;DHT22;1488;51.548;7.222;2023-08-30T13:33:19;24.40;84.90
2957;DHT22;1488;51.548;7.222;2023-08-30T13:35:49;24.50;85.00
2957;DHT22;1488;51.548;7.222;2023-08-30T13:38:18;24.40;84.90
2957;DHT22;1488;51.548;7.222;2023-08-30T13:40:46;24.40;84.90
2957;DHT22;1488;51.548;7.222;2023-08-30T13:43:39;24.40;84.90
2957;DHT22;1488;51.548;7.222;2023-08-30T13:46:08;24.40;84.90
2957;DHT22;1488;51.548;7.222;2023-08-30T13:48:37;24.40;84.90
2957;DHT22;1488;51.548;7.222;2023-08-30T13:51:34;24.40;84.90
2957;DHT22;1488;51.548;7.222;2023-08-30T13:54:02;24.40;85.00
2957;DHT22;1488;51.548;7.222;2023-08-30T13:56:30;24.40;85.00
2957;DHT22;1488;51.548;7.222;2023-08-30T13:58:58;24.40;85.00
2957;DHT22;1488;51.548;7.222;2023-08-30T14:01:28;24.40;85.00
2957;DHT22;1488;51.548;7.222;2023-08-30T14:03:55;24.40;85.00
2957;DHT22;1488;51.548;7.222;2023-08-30T14:06:22;24.40;85.00
2957;DHT22;1488;51.548;7.222;2023-08-30T14:08:49;24.40;85.00
2957;DHT22;1488;51.548;7.222;2023-08-30T14:11:15;24.40;85.00
2957;DHT22;1488;51.548;7.222;2023-08-30T14:13:44;24.40;84.90
2957;DHT22;1488;51.548;7.222;2023-08-30T14:22:01;24.40;84.90
2957;DHT22;1488;51.548;7.222;2023-08-30T14:31:07;24.40;85.00
2957;DHT22;1488;51.548;7.222;2023-08-30T14:33:36;24.40;85.00
2957;DHT22;1488;51.548;7.222;2023-08-30T14:36:04;24.40;84.80
2957;DHT22;1488;51.548;7.222;2023-08-30T14:38:35;24.40;84.80
2957;DHT22;1488;51.548;7.222;2023-08-30T14:41:03;24.40;84.80
2957;DHT22;1488;51.548;7.222;2023-08-30T14:43:30;24.40;84.80
2957;DHT22;1488;51.548;7.222;2023-08-30T14:49:20;24.40;84.70
2957;DHT22;1488;51.548;7.222;2023-08-30T14:51:48;24.40;84.80
2957;DHT22;1488;51.548;7.222;2023-08-30T14:54:39;24.40;84.80
2957;DHT22;1488;51.548;7.222;2023-08-30T15:00:08;24.40;84.70
2957;DHT22;1488;51.548;7.222;2023-08-30T15:02:35;24.40;84.70
2957;DHT22;1488;51.548;7.222;2023-08-30T15:05:19;24.40;84.70
2957;DHT22;1488;51.548;7.222;2023-08-30T15:11:00;24.40;84.80
2957;DHT22;1488;51.548;7.222;2023-08-30T15:13:28;24.30;84.80
2957;DHT22;1488;51.548;7.222;2023-08-30T15:16:05;24.40;84.90
2957;DHT22;1488;51.548;7.222;2023-08-30T15:18:32;24.40;84.90
2957;DHT22;1488;51.548;7.222;2023-08-30T15:21:00;24.30;84.70
2957;DHT22;1488;51.548;7.222;2023-08-30T15:23:27;24.30;84.80
2957;DHT22;1488;51.548;7.222;2023-08-30T15:25:54;24.30;84.70
2957;DHT22;1488;51.548;7.222;2023-08-30T15:28:21;24.30;84.80
2957;DHT22;1488;51.548;7.222;2023-08-30T15:30:48;24.30;84.80
2957;DHT22;1488;51.548;7.222;2023-08-30T15:33:17;24.30;84.70
2957;DHT22;1488;51.548;7.222;2023-08-30T15:35:43;24.20;84.90
2957;DHT22;1488;51.548;7.222;2023-08-30T15:38:12;24.30;84.80
2957;DHT22;1488;51.548;7.222;2023-08-30T15:40:39;24.30;84.80
2957;DHT22;1488;51.548;7.222;2023-08-30T15:43:06;24.30;84.80
2957;DHT22;1488;51.548;7.222;2023-08-30T15:45:48;24.30;84.80
2957;DHT22;1488;51.548;7.222;2023-08-30T15:48:22;24.30;84.80
2957;DHT22;1488;51.548;7.222;2023-08-30T15:51:09;24.30;84.80
2957;DHT22;1488;51.548;7.222;2023-08-30T15:53:37;24.30;84.80
2957;DHT22;1488;51.548;7.222;2023-08-30T15:59:41;24.30;84.90
2957;DHT22;1488;51.548;7.222;2023-08-30T16:02:08;24.30;85.00
2957;DHT22;1488;51.548;7.222;2023-08-30T16:04:35;24.10;84.70
2957;DHT22;1488;51.548;7.222;2023-08-30T16:07:02;24.30;84.90
2957;DHT22;1488;51.548;7.222;2023-08-30T16:09:31;24.30;84.90
2957;DHT22;1488;51.548;7.222;2023-08-30T16:15:20;24.20;84.70
2957;DHT22;1488;51.548;7.222;2023-08-30T16:17:49;24.30;85.00
2957;DHT22;1488;51.548;7.222;2023-08-30T16:20:16;24.30;85.00
2957;DHT22;1488;51.548;7.222;2023-08-30T16:22:44;24.30;85.00
2957;DHT22;1488;51.548;7.222;2023-08-30T16:25:14;24.30;84.90
2957;DHT22;1488;51.548;7.222;2023-08-30T16:27:49;24.30;84.90
2957;DHT22;1488;51.548;7.222;2023-08-30T16:30:16;24.30;85.30
2957;DHT22;1488;51.548;7.222;2023-08-30T16:32:43;24.20;85.40
2957;DHT22;1488;51.548;7.222;2023-08-30T16:35:12;24.20;85.50
2957;DHT22;1488;51.548;7.222;2023-08-30T16:37:43;24.20;85.60
2957;DHT22;1488;51.548;7.222;2023-08-30T16:40:11;24.10;85.50
2957;DHT22;1488;51.548;7.222;2023-08-30T16:42:46;24.10;85.40
2957;DHT22;1488;51.548;7.222;2023-08-30T16:45:19;24.10;85.40
2957;DHT22;1488;51.548;7.222;2023-08-30T16:47:49;24.10;85.40
2957;DHT22;1488;51.548;7.222;2023-08-30T16:50:16;24.20;85.50
2957;DHT22;1488;51.548;7.222;2023-08-30T16:52:50;24.20;85.40
2957;DHT22;1488;51.548;7.222;2023-08-30T16:55:17;24.20;85.40
2957;DHT22;1488;51.548;7.222;2023-08-30T16:57:48;24.20;85.40
2957;DHT22;1488;51.548;7.222;2023-08-30T17:00:16;24.20;85.30
2957;DHT22;1488;51.548;7.222;2023-08-30T17:02:45;24.20;85.30
2957;DHT22;1488;51.548;7.222;2023-08-30T17:05:12;24.20;85.20
2957;DHT22;1488;51.548;7.222;2023-08-30T17:07:39;24.20;85.30
2957;DHT22;1488;51.548;7.222;2023-08-30T17:10:06;24.30;85.30
2957;DHT22;1488;51.548;7.222;2023-08-30T17:12:33;24.30;85.30
2957;DHT22;1488;51.548;7.222;2023-08-30T17:15:02;24.20;85.20
2957;DHT22;1488;51.548;7.222;2023-08-30T17:17:29;24.30;85.30
2957;DHT22;1488;51.548;7.222;2023-08-30T17:19:55;24.30;85.20
2957;DHT22;1488;51.548;7.222;2023-08-30T17:26:01;24.30;85.30
2957;DHT22;1488;51.548;7.222;2023-08-30T17:28:29;24.30;85.30
2957;DHT22;1488;51.548;7.222;2023-08-30T17:30:57;24.30;85.30
2957;DHT22;1488;51.548;7.222;2023-08-30T17:33:25;24.30;85.20
2957;DHT22;1488;51.548;7.222;2023-08-30T17:35:55;24.30;85.10
2957;DHT22;1488;51.548;7.222;2023-08-30T17:38:22;24.30;85.20